Flight Track Log - Related Links

Times and Time Zones

All times are in EDT time to prevent confusion due to time zone crossing. See the N551US flight status page for this flight to view local times or setup timezone preferences in your user account.

Time Position Orientation Groundspeed Altitude Reporting Facility
EDT Latitude Longitude Course Direction KTS MPH feet Rate Location/Type
Thu 11:30:39 AM 30.2881 -87.6575 104° East 101 116 500  Level Jacksonville Center
Thu 11:31:09 AM 30.2844 -87.6406 104° East 112 129 800 593 Climbing Jacksonville Center
Thu 11:32:10 AM 30.3003 -87.6078 61° Northeast 168 193 1,400 694 Climbing Jacksonville Center
Thu 11:33:10 AM 30.3469 -87.5931 15° North 181 208 2,200 793 Climbing Jacksonville Center
Thu 11:34:11 AM 30.3975 -87.5739 18° North 178 205 3,000 738 Climbing Jacksonville Center
Thu 11:35:12 AM 30.4422 -87.5544 21° North 177 204 3,700 744 Climbing Jacksonville Center
Thu 11:36:12 AM 30.4908 -87.5350 19° North 175 201 4,500 793 Climbing Jacksonville Center
Thu 11:37:13 AM 30.5353 -87.5181 18° North 169 194 5,300 738 Climbing Jacksonville Center
Thu 11:38:14 AM 30.5819 -87.5008 18° North 169 194 6,000 689 Climbing Jacksonville Center
Thu 11:39:15 AM 30.6242 -87.4836 19° North 167 192 6,700 496 Climbing Jacksonville Center
Thu 11:40:15 AM 30.6731 -87.4644 19° North 176 203 7,000 149 Climbing Jacksonville Center
Thu 11:41:16 AM 30.7194 -87.4447 20° North 194 223 7,000  Level Jacksonville Center
Thu 11:42:17 AM 30.7747 -87.4233 18° North 198 228 7,000 246 Level Jacksonville Center
Thu 11:43:18 AM 30.8275 -87.4042 17° North 189 217 7,500 545 Climbing Jacksonville Center
Thu 11:44:18 AM 30.8722 -87.3819 23° Northeast 172 198 8,100 639 Climbing Jacksonville Center
Thu 11:45:20 AM 30.9167 -87.3647 18° North 165 190 8,800 558 Climbing Jacksonville Center
Thu 11:45:44 AM 30.9314 -87.3581 21° North 163 188 8,900 143 Climbing Jacksonville Center
Thu 11:46:44 AM 30.9778 -87.3408 18° North 174 200 9,000 50 Climbing Jacksonville Center
Thu 11:47:44 AM 31.0244 -87.3214 20° North 174 200 9,000  Level Jacksonville Center
Thu 11:48:44 AM 31.0753 -87.2994 20° North 179 206 9,000  Level Jacksonville Center
Thu 11:49:44 AM 31.1283 -87.2803 17° North 184 212 9,000  Level Jacksonville Center
Thu 11:50:44 AM 31.1811 -87.2608 17° North 189 217 9,000  Level Jacksonville Center
Thu 11:51:44 AM 31.2297 -87.2386 21° North 189 217 9,000  Level Jacksonville Center
Thu 11:52:44 AM 31.2806 -87.2192 18° North 189 217 9,000  Level Jacksonville Center
Thu 11:53:44 AM 31.3314 -87.1972 20° North 189 217 9,000  Level Jacksonville Center
Thu 11:55:29 AM 31.4233 -87.1608 19° North 204 235 9,000  Level Atlanta Center
Thu 11:56:29 AM 31.4761 -87.1433 16° North 204 235 9,000  Level Atlanta Center
Thu 11:57:29 AM 31.5308 -87.1208 19° North 199 229 9,000  Level Atlanta Center
Thu 11:58:29 AM 31.5836 -87.1006 18° North 199 229 9,000  Level Atlanta Center
Thu 11:59:29 AM 31.6342 -87.0781 21° North 194 223 9,000  Level Atlanta Center
Thu 12:00:29 PM 31.6892 -87.0481 25° Northeast 189 217 9,000  Level Atlanta Center
Thu 12:01:29 PM 31.7397 -87.0278 19° North 189 217 9,000  Level Atlanta Center
Thu 12:02:29 PM 31.7944 -87.0100 15° North 194 223 9,000  Level Atlanta Center
Thu 12:03:29 PM 31.8431 -86.9872 22° Northeast 194 223 9,000  Level Atlanta Center
Thu 12:04:29 PM 31.8978 -86.9669 17° North 196 226 9,000  Level Atlanta Center
Thu 12:05:29 PM 31.9483 -86.9417 23° Northeast 196 226 9,000  Level Atlanta Center
Thu 12:06:29 PM 32.0008 -86.9239 16° North 196 226 9,000  Level Atlanta Center
Thu 12:07:29 PM 32.0536 -86.9011 20° North 196 226 9,000  Level Atlanta Center
Thu 12:08:29 PM 32.1064 -86.8781 20° North 191 220 9,000  Level Atlanta Center
Thu 12:09:29 PM 32.1592 -86.8578 18° North 191 220 9,000  Level Atlanta Center
Thu 12:10:29 PM 32.2117 -86.8350 20° North 191 220 9,000  Level Atlanta Center
Thu 12:11:29 PM 32.2561 -86.8167 19° North 191 220 9,000  Level Atlanta Center
Thu 12:12:29 PM 32.3106 -86.7961 18° North 191 220 9,000  Level Atlanta Center
Thu 12:13:29 PM 32.3633 -86.7733 20° North 191 220 9,000  Level Atlanta Center
Thu 12:15:00 PM 32.4355 -86.7467 17° North  Level FlightAware Approximate
Thu 12:22:00 PM 32.7654 -86.6132 21° North  Level FlightAware Approximate
Thu 12:22:32 PM 32.8478 -86.5733 21° North 201 231 9,000  Level Atlanta Center
Thu 12:23:00 PM 32.8120 -86.5922 21° North  Level FlightAware Approximate
Thu 12:23:45 PM 32.9067 -86.5478 20° North 202 232 9,000  Level Atlanta Center
Thu 12:24:00 PM 32.8586 -86.5713 21° North  Level FlightAware Approximate
Thu 12:24:45 PM 32.9594 -86.5244 20° North 201 231 9,000  Level Atlanta Center
Thu 12:25:00 PM 32.9052 -86.5503 21° North  Level FlightAware Approximate
Thu 12:25:52 PM 33.0225 -86.4989 19° North 202 232 9,000  Level Atlanta Center
Thu 12:26:00 PM 32.9518 -86.5293 21° North  Level FlightAware Approximate
Thu 12:26:53 PM 33.0731 -86.4756 21° North 202 232 9,000  Level Atlanta Center
Thu 12:27:00 PM 32.9983 -86.5083 21° North  Level FlightAware Approximate
Thu 12:27:53 PM 33.1278 -86.4547 18° North 204 235 9,000  Level Atlanta Center
Thu 12:29:00 PM 33.1867 -86.4292 20° North 204 235 9,100  Climbing Atlanta Center
Thu 12:30:01 PM 33.2433 -86.4058 19° North 204 235 9,000 -298 Descending Atlanta Center
Thu 12:31:01 PM 33.3003 -86.3800 21° North 212 244 8,500 -522 Descending Atlanta Center
Thu 12:31:56 PM 33.3508 -86.3592 19° North 219 252 8,000 -590 Descending Atlanta Center
Thu 12:33:03 PM 33.4139 -86.3333 19° North 220 253 7,300 -614 Descending Atlanta Center
Thu 12:34:03 PM 33.4728 -86.3100 18° North 219 252 6,700 -545 Descending Atlanta Center
Thu 12:35:04 PM 33.5256 -86.2839 22° Northeast 208 239 6,200 -545 Descending Atlanta Center
Thu 12:36:04 PM 33.5781 -86.2606 20° North 199 229 5,600 -496 Descending Atlanta Center
Thu 12:37:05 PM 33.6264 -86.2417 18° North 180 207 5,200 -259 Descending Atlanta Center
Thu 12:38:00 PM 33.6683 -86.2228 21° North 171 197 5,100 -313 Descending Atlanta Center
Thu 12:39:00 PM 33.7189 -86.2042 17° North 193 222 4,600 -645 Descending Atlanta Center
Thu 12:40:01 PM 33.7714 -86.1781 22° Northeast 191 220 3,800 -787 Descending Atlanta Center

Login

Don't have an account? Register now (free) for customized features, flight alerts, and more!